Gilbertown, Alabama
Current Conditions -  °F | °C
As of 11:58 AM on Friday 21 Nov 2014 (Local Time) from KMEI Reporting Station
Clear Clear  
Wind Chill: 76°   Ceiling: Unl
Heat Index: 76°   Visibility: 10mi
Dew Point: 44°   Wind: 0mph
Humidity: 32%   Direction: NA
Pressure: 30.32"   Gusts: NA
Location:  31.88°N, 88.32°W
Report Text: KMEI 211758Z 00000KT 10SM CLR 24/07 A3032 RMK AO2 SLP267 60000 T02440067 10267 20017 58012
Loading
Personal Weather Stations






























Interactive Weather Map New forecast layout! Learn more

10-Day Weather Forecast

Advertisements
Track Severe Weather on mobile